sensor_id;sensor_type;location;lat;lon;timestamp;P1;durP1;ratioP1;P2;durP2;ratioP2
21601;SDS011;10963;50.934;4.668;2022-08-05T00:00:00;10.87;;;6.47;;
21601;SDS011;10963;50.934;4.668;2022-08-05T00:02:26;9.90;;;6.90;;
21601;SDS011;10963;50.934;4.668;2022-08-05T00:04:51;9.93;;;7.27;;
21601;SDS011;10963;50.934;4.668;2022-08-05T00:07:19;13.10;;;7.03;;
21601;SDS011;10963;50.934;4.668;2022-08-05T00:09:45;12.77;;;7.03;;
21601;SDS011;10963;50.934;4.668;2022-08-05T00:12:15;10.87;;;6.83;;
21601;SDS011;10963;50.934;4.668;2022-08-05T00:14:41;12.80;;;6.00;;
21601;SDS011;10963;50.934;4.668;2022-08-05T00:17:09;9.03;;;6.00;;
21601;SDS011;10963;50.934;4.668;2022-08-05T00:19:35;12.53;;;6.90;;
21601;SDS011;10963;50.934;4.668;2022-08-05T00:22:03;11.13;;;6.63;;
21601;SDS011;10963;50.934;4.668;2022-08-05T00:24:29;11.27;;;6.33;;
21601;SDS011;10963;50.934;4.668;2022-08-05T00:26:54;11.63;;;6.63;;
21601;SDS011;10963;50.934;4.668;2022-08-05T00:29:20;9.83;;;6.40;;
21601;SDS011;10963;50.934;4.668;2022-08-05T00:31:46;8.30;;;6.47;;
21601;SDS011;10963;50.934;4.668;2022-08-05T00:34:14;11.13;;;6.47;;
21601;SDS011;10963;50.934;4.668;2022-08-05T00:36:40;12.43;;;7.07;;
21601;SDS011;10963;50.934;4.668;2022-08-05T00:39:06;10.63;;;6.83;;
21601;SDS011;10963;50.934;4.668;2022-08-05T00:41:34;8.90;;;6.70;;
21601;SDS011;10963;50.934;4.668;2022-08-05T00:44:01;8.97;;;6.40;;
21601;SDS011;10963;50.934;4.668;2022-08-05T00:46:30;11.13;;;7.27;;
21601;SDS011;10963;50.934;4.668;2022-08-05T00:48:56;13.40;;;7.03;;
21601;SDS011;10963;50.934;4.668;2022-08-05T00:51:24;10.63;;;7.27;;
21601;SDS011;10963;50.934;4.668;2022-08-05T00:53:52;9.47;;;6.63;;
21601;SDS011;10963;50.934;4.668;2022-08-05T00:56:18;11.27;;;7.13;;
21601;SDS011;10963;50.934;4.668;2022-08-05T00:58:44;12.50;;;7.77;;
21601;SDS011;10963;50.934;4.668;2022-08-05T01:01:12;10.30;;;7.30;;
21601;SDS011;10963;50.934;4.668;2022-08-05T01:03:43;15.67;;;7.47;;
21601;SDS011;10963;50.934;4.668;2022-08-05T01:06:11;18.53;;;8.10;;
21601;SDS011;10963;50.934;4.668;2022-08-05T01:08:37;12.47;;;8.17;;
21601;SDS011;10963;50.934;4.668;2022-08-05T01:11:13;15.30;;;8.53;;
21601;SDS011;10963;50.934;4.668;2022-08-05T01:13:47;13.97;;;8.47;;
21601;SDS011;10963;50.934;4.668;2022-08-05T01:16:39;14.43;;;8.70;;
21601;SDS011;10963;50.934;4.668;2022-08-05T01:30:12;16.10;;;8.83;;
21601;SDS011;10963;50.934;4.668;2022-08-05T01:32:39;13.77;;;9.03;;
21601;SDS011;10963;50.934;4.668;2022-08-05T01:35:18;13.57;;;9.07;;
21601;SDS011;10963;50.934;4.668;2022-08-05T01:37:53;17.60;;;9.37;;
21601;SDS011;10963;50.934;4.668;2022-08-05T01:40:25;13.70;;;10.20;;
21601;SDS011;10963;50.934;4.668;2022-08-05T01:42:53;15.57;;;9.53;;
21601;SDS011;10963;50.934;4.668;2022-08-05T01:45:21;13.03;;;9.67;;
21601;SDS011;10963;50.934;4.668;2022-08-05T01:47:53;14.63;;;9.17;;
21601;SDS011;10963;50.934;4.668;2022-08-05T01:50:27;15.07;;;9.70;;
21601;SDS011;10963;50.934;4.668;2022-08-05T01:53:01;16.73;;;9.40;;
21601;SDS011;10963;50.934;4.668;2022-08-05T01:55:30;19.47;;;9.23;;
21601;SDS011;10963;50.934;4.668;2022-08-05T01:58:00;18.83;;;10.23;;
21601;SDS011;10963;50.934;4.668;2022-08-05T02:00:32;12.90;;;7.90;;
21601;SDS011;10963;50.934;4.668;2022-08-05T02:03:10;14.70;;;8.50;;
21601;SDS011;10963;50.934;4.668;2022-08-05T02:05:39;10.57;;;8.40;;
21601;SDS011;10963;50.934;4.668;2022-08-05T02:08:07;17.27;;;8.93;;
21601;SDS011;10963;50.934;4.668;2022-08-05T02:10:38;17.30;;;8.83;;
21601;SDS011;10963;50.934;4.668;2022-08-05T02:13:18;12.67;;;9.47;;
21601;SDS011;10963;50.934;4.668;2022-08-05T02:15:52;15.53;;;8.70;;
21601;SDS011;10963;50.934;4.668;2022-08-05T02:21:03;11.97;;;9.30;;
21601;SDS011;10963;50.934;4.668;2022-08-05T02:23:35;17.90;;;8.87;;
21601;SDS011;10963;50.934;4.668;2022-08-05T02:26:04;14.77;;;8.67;;
21601;SDS011;10963;50.934;4.668;2022-08-05T02:28:38;15.90;;;8.77;;
21601;SDS011;10963;50.934;4.668;2022-08-05T02:31:16;13.83;;;8.47;;
21601;SDS011;10963;50.934;4.668;2022-08-05T02:33:49;13.70;;;8.20;;
21601;SDS011;10963;50.934;4.668;2022-08-05T02:36:26;11.00;;;8.23;;
21601;SDS011;10963;50.934;4.668;2022-08-05T02:38:54;12.03;;;8.20;;
21601;SDS011;10963;50.934;4.668;2022-08-05T02:41:21;14.43;;;8.57;;
21601;SDS011;10963;50.934;4.668;2022-08-05T02:43:51;12.87;;;8.47;;
21601;SDS011;10963;50.934;4.668;2022-08-05T02:46:20;13.43;;;8.40;;
21601;SDS011;10963;50.934;4.668;2022-08-05T02:48:46;14.80;;;8.63;;
21601;SDS011;10963;50.934;4.668;2022-08-05T02:51:15;13.97;;;8.50;;
21601;SDS011;10963;50.934;4.668;2022-08-05T02:53:42;15.93;;;8.80;;
21601;SDS011;10963;50.934;4.668;2022-08-05T02:56:12;12.07;;;8.33;;
21601;SDS011;10963;50.934;4.668;2022-08-05T02:58:39;15.00;;;8.27;;
21601;SDS011;10963;50.934;4.668;2022-08-05T03:01:06;15.27;;;8.77;;
21601;SDS011;10963;50.934;4.668;2022-08-05T03:03:40;14.77;;;8.80;;
21601;SDS011;10963;50.934;4.668;2022-08-05T03:06:08;14.13;;;9.10;;
21601;SDS011;10963;50.934;4.668;2022-08-05T03:08:35;14.60;;;8.77;;
21601;SDS011;10963;50.934;4.668;2022-08-05T03:11:03;12.23;;;8.53;;
21601;SDS011;10963;50.934;4.668;2022-08-05T03:13:40;18.33;;;9.13;;
21601;SDS011;10963;50.934;4.668;2022-08-05T03:16:05;11.27;;;8.73;;
21601;SDS011;10963;50.934;4.668;2022-08-05T03:18:33;19.70;;;8.60;;
21601;SDS011;10963;50.934;4.668;2022-08-05T03:20:59;16.30;;;9.40;;
21601;SDS011;10963;50.934;4.668;2022-08-05T03:23:27;17.87;;;9.37;;
21601;SDS011;10963;50.934;4.668;2022-08-05T03:25:53;13.83;;;8.67;;
21601;SDS011;10963;50.934;4.668;2022-08-05T03:28:24;14.73;;;8.60;;
21601;SDS011;10963;50.934;4.668;2022-08-05T03:30:51;14.90;;;9.73;;
21601;SDS011;10963;50.934;4.668;2022-08-05T03:33:19;15.50;;;9.40;;
21601;SDS011;10963;50.934;4.668;2022-08-05T03:35:47;11.80;;;9.57;;
21601;SDS011;10963;50.934;4.668;2022-08-05T03:38:16;17.17;;;9.53;;
21601;SDS011;10963;50.934;4.668;2022-08-05T03:40:42;17.43;;;9.63;;
21601;SDS011;10963;50.934;4.668;2022-08-05T03:43:16;16.97;;;10.50;;
21601;SDS011;10963;50.934;4.668;2022-08-05T03:45:44;18.13;;;9.43;;
21601;SDS011;10963;50.934;4.668;2022-08-05T03:48:16;21.97;;;10.13;;
21601;SDS011;10963;50.934;4.668;2022-08-05T03:50:50;15.50;;;9.40;;
21601;SDS011;10963;50.934;4.668;2022-08-05T03:56:02;18.37;;;11.37;;
21601;SDS011;10963;50.934;4.668;2022-08-05T03:58:39;20.97;;;10.60;;
21601;SDS011;10963;50.934;4.668;2022-08-05T04:01:12;16.07;;;11.33;;
21601;SDS011;10963;50.934;4.668;2022-08-05T04:03:41;18.37;;;11.27;;
21601;SDS011;10963;50.934;4.668;2022-08-05T04:06:11;17.33;;;10.57;;
21601;SDS011;10963;50.934;4.668;2022-08-05T04:08:40;20.00;;;11.27;;
21601;SDS011;10963;50.934;4.668;2022-08-05T04:11:07;20.77;;;12.23;;
21601;SDS011;10963;50.934;4.668;2022-08-05T04:13:37;19.87;;;11.93;;
21601;SDS011;10963;50.934;4.668;2022-08-05T04:16:07;21.57;;;11.17;;
21601;SDS011;10963;50.934;4.668;2022-08-05T04:18:36;16.93;;;11.60;;
21601;SDS011;10963;50.934;4.668;2022-08-05T04:21:04;16.77;;;11.20;;
21601;SDS011;10963;50.934;4.668;2022-08-05T04:23:33;23.20;;;12.43;;
21601;SDS011;10963;50.934;4.668;2022-08-05T04:26:05;18.97;;;11.50;;
21601;SDS011;10963;50.934;4.668;2022-08-05T04:28:33;21.10;;;11.33;;
21601;SDS011;10963;50.934;4.668;2022-08-05T04:31:02;19.40;;;11.97;;
21601;SDS011;10963;50.934;4.668;2022-08-05T04:33:29;19.67;;;11.67;;
21601;SDS011;10963;50.934;4.668;2022-08-05T04:35:56;21.60;;;11.47;;
21601;SDS011;10963;50.934;4.668;2022-08-05T04:38:24;23.70;;;11.97;;
21601;SDS011;10963;50.934;4.668;2022-08-05T04:40:50;20.83;;;11.07;;
21601;SDS011;10963;50.934;4.668;2022-08-05T04:43:16;18.07;;;11.07;;
21601;SDS011;10963;50.934;4.668;2022-08-05T04:45:42;17.93;;;11.70;;
21601;SDS011;10963;50.934;4.668;2022-08-05T04:48:14;19.23;;;11.53;;
21601;SDS011;10963;50.934;4.668;2022-08-05T04:50:41;14.47;;;11.07;;
21601;SDS011;10963;50.934;4.668;2022-08-05T04:53:16;18.87;;;10.97;;
21601;SDS011;10963;50.934;4.668;2022-08-05T04:55:44;17.13;;;10.70;;
21601;SDS011;10963;50.934;4.668;2022-08-05T04:58:14;22.87;;;11.40;;
21601;SDS011;10963;50.934;4.668;2022-08-05T05:00:44;15.97;;;10.83;;
21601;SDS011;10963;50.934;4.668;2022-08-05T05:03:14;20.10;;;11.63;;
21601;SDS011;10963;50.934;4.668;2022-08-05T05:05:43;19.37;;;12.13;;
21601;SDS011;10963;50.934;4.668;2022-08-05T05:08:10;19.00;;;11.27;;
21601;SDS011;10963;50.934;4.668;2022-08-05T05:10:41;19.47;;;10.43;;
21601;SDS011;10963;50.934;4.668;2022-08-05T05:13:09;19.43;;;10.93;;
21601;SDS011;10963;50.934;4.668;2022-08-05T05:15:37;19.50;;;11.07;;
21601;SDS011;10963;50.934;4.668;2022-08-05T05:18:05;20.67;;;11.30;;
21601;SDS011;10963;50.934;4.668;2022-08-05T05:20:32;17.10;;;10.53;;
21601;SDS011;10963;50.934;4.668;2022-08-05T05:22:58;16.77;;;10.10;;
21601;SDS011;10963;50.934;4.668;2022-08-05T05:25:25;20.17;;;11.43;;
21601;SDS011;10963;50.934;4.668;2022-08-05T05:27:54;20.93;;;11.50;;
21601;SDS011;10963;50.934;4.668;2022-08-05T05:30:22;21.23;;;11.13;;
21601;SDS011;10963;50.934;4.668;2022-08-05T05:32:51;19.43;;;11.03;;
21601;SDS011;10963;50.934;4.668;2022-08-05T05:35:17;21.20;;;11.07;;
21601;SDS011;10963;50.934;4.668;2022-08-05T05:40:17;13.50;;;9.93;;
21601;SDS011;10963;50.934;4.668;2022-08-05T05:42:48;21.50;;;11.03;;
21601;SDS011;10963;50.934;4.668;2022-08-05T05:45:14;14.97;;;10.10;;
21601;SDS011;10963;50.934;4.668;2022-08-05T05:47:42;20.97;;;10.37;;
21601;SDS011;10963;50.934;4.668;2022-08-05T05:50:12;23.03;;;10.93;;
21601;SDS011;10963;50.934;4.668;2022-08-05T05:52:41;14.67;;;9.63;;
21601;SDS011;10963;50.934;4.668;2022-08-05T05:55:09;19.30;;;9.90;;
21601;SDS011;10963;50.934;4.668;2022-08-05T05:57:39;19.97;;;9.83;;
21601;SDS011;10963;50.934;4.668;2022-08-05T06:00:13;22.33;;;10.57;;
21601;SDS011;10963;50.934;4.668;2022-08-05T06:02:42;16.63;;;9.40;;
21601;SDS011;10963;50.934;4.668;2022-08-05T06:05:08;18.30;;;9.77;;
21601;SDS011;10963;50.934;4.668;2022-08-05T06:07:36;16.30;;;9.93;;
21601;SDS011;10963;50.934;4.668;2022-08-05T06:10:06;20.40;;;10.03;;
21601;SDS011;10963;50.934;4.668;2022-08-05T06:12:33;21.30;;;10.33;;
21601;SDS011;10963;50.934;4.668;2022-08-05T06:15:00;14.30;;;9.37;;
21601;SDS011;10963;50.934;4.668;2022-08-05T06:17:27;21.43;;;9.90;;
21601;SDS011;10963;50.934;4.668;2022-08-05T06:20:00;15.10;;;9.87;;
21601;SDS011;10963;50.934;4.668;2022-08-05T06:22:31;21.90;;;9.97;;
21601;SDS011;10963;50.934;4.668;2022-08-05T06:24:58;19.43;;;9.73;;
21601;SDS011;10963;50.934;4.668;2022-08-05T06:27:24;14.30;;;8.60;;
21601;SDS011;10963;50.934;4.668;2022-08-05T06:29:50;18.73;;;10.65;;
21601;SDS011;10963;50.934;4.668;2022-08-05T06:32:18;17.47;;;10.30;;
21601;SDS011;10963;50.934;4.668;2022-08-05T06:34:44;18.73;;;9.53;;
21601;SDS011;10963;50.934;4.668;2022-08-05T06:37:11;25.00;;;10.13;;
21601;SDS011;10963;50.934;4.668;2022-08-05T06:39:37;17.20;;;9.67;;
21601;SDS011;10963;50.934;4.668;2022-08-05T06:42:03;11.37;;;8.80;;
21601;SDS011;10963;50.934;4.668;2022-08-05T06:44:29;17.23;;;9.13;;
21601;SDS011;10963;50.934;4.668;2022-08-05T06:46:55;18.60;;;9.97;;
21601;SDS011;10963;50.934;4.668;2022-08-05T06:49:22;12.27;;;8.67;;
21601;SDS011;10963;50.934;4.668;2022-08-05T06:51:53;11.63;;;9.13;;
21601;SDS011;10963;50.934;4.668;2022-08-05T06:54:22;17.70;;;8.83;;
21601;SDS011;10963;50.934;4.668;2022-08-05T06:56:49;15.53;;;9.13;;
21601;SDS011;10963;50.934;4.668;2022-08-05T06:59:16;17.63;;;8.80;;
21601;SDS011;10963;50.934;4.668;2022-08-05T07:01:46;16.97;;;9.27;;
21601;SDS011;10963;50.934;4.668;2022-08-05T07:04:14;15.57;;;9.37;;
21601;SDS011;10963;50.934;4.668;2022-08-05T07:06:40;15.50;;;8.63;;
21601;SDS011;10963;50.934;4.668;2022-08-05T07:09:09;13.20;;;9.10;;
21601;SDS011;10963;50.934;4.668;2022-08-05T07:11:36;16.13;;;9.43;;
21601;SDS011;10963;50.934;4.668;2022-08-05T07:14:05;18.27;;;8.97;;
21601;SDS011;10963;50.934;4.668;2022-08-05T07:16:52;16.63;;;8.43;;
21601;SDS011;10963;50.934;4.668;2022-08-05T07:19:24;17.40;;;8.70;;
21601;SDS011;10963;50.934;4.668;2022-08-05T07:21:51;13.70;;;8.33;;
21601;SDS011;10963;50.934;4.668;2022-08-05T07:24:20;13.87;;;7.93;;
21601;SDS011;10963;50.934;4.668;2022-08-05T07:26:47;15.03;;;7.90;;
21601;SDS011;10963;50.934;4.668;2022-08-05T07:29:16;14.40;;;8.23;;
21601;SDS011;10963;50.934;4.668;2022-08-05T07:31:41;17.07;;;8.40;;
21601;SDS011;10963;50.934;4.668;2022-08-05T07:34:08;13.40;;;8.00;;
21601;SDS011;10963;50.934;4.668;2022-08-05T07:36:36;11.70;;;7.50;;
21601;SDS011;10963;50.934;4.668;2022-08-05T07:39:03;16.53;;;8.00;;
21601;SDS011;10963;50.934;4.668;2022-08-05T07:41:31;12.37;;;7.50;;
21601;SDS011;10963;50.934;4.668;2022-08-05T07:43:59;14.60;;;7.37;;
21601;SDS011;10963;50.934;4.668;2022-08-05T07:46:27;10.57;;;7.07;;
21601;SDS011;10963;50.934;4.668;2022-08-05T07:48:57;14.63;;;7.50;;
21601;SDS011;10963;50.934;4.668;2022-08-05T07:51:24;13.30;;;7.13;;
21601;SDS011;10963;50.934;4.668;2022-08-05T07:53:49;12.93;;;7.07;;
21601;SDS011;10963;50.934;4.668;2022-08-05T07:56:15;10.33;;;6.97;;
21601;SDS011;10963;50.934;4.668;2022-08-05T07:58:41;10.87;;;6.30;;
21601;SDS011;10963;50.934;4.668;2022-08-05T08:01:09;12.00;;;6.67;;
21601;SDS011;10963;50.934;4.668;2022-08-05T08:03:38;12.00;;;6.87;;
21601;SDS011;10963;50.934;4.668;2022-08-05T08:06:04;14.97;;;6.90;;
21601;SDS011;10963;50.934;4.668;2022-08-05T08:08:32;10.00;;;6.73;;
21601;SDS011;10963;50.934;4.668;2022-08-05T08:10:58;11.77;;;6.60;;
21601;SDS011;10963;50.934;4.668;2022-08-05T08:13:24;9.77;;;6.93;;
21601;SDS011;10963;50.934;4.668;2022-08-05T08:15:50;12.17;;;6.63;;
21601;SDS011;10963;50.934;4.668;2022-08-05T08:18:15;9.50;;;5.97;;
21601;SDS011;10963;50.934;4.668;2022-08-05T08:20:41;11.07;;;6.43;;
21601;SDS011;10963;50.934;4.668;2022-08-05T08:23:09;13.77;;;6.17;;
21601;SDS011;10963;50.934;4.668;2022-08-05T08:25:35;11.67;;;6.07;;
21601;SDS011;10963;50.934;4.668;2022-08-05T08:28:01;13.70;;;6.03;;
21601;SDS011;10963;50.934;4.668;2022-08-05T08:30:32;12.07;;;5.23;;
21601;SDS011;10963;50.934;4.668;2022-08-05T08:32:57;11.43;;;5.27;;
21601;SDS011;10963;50.934;4.668;2022-08-05T08:35:23;14.30;;;5.00;;
21601;SDS011;10963;50.934;4.668;2022-08-05T08:37:52;12.23;;;5.53;;
21601;SDS011;10963;50.934;4.668;2022-08-05T08:40:18;25.33;;;6.03;;
21601;SDS011;10963;50.934;4.668;2022-08-05T08:42:47;8.20;;;4.22;;
21601;SDS011;10963;50.934;4.668;2022-08-05T08:45:18;9.15;;;3.20;;
21601;SDS011;10963;50.934;4.668;2022-08-05T08:47:46;7.05;;;3.50;;
21601;SDS011;10963;50.934;4.668;2022-08-05T08:50:15;9.57;;;4.57;;
21601;SDS011;10963;50.934;4.668;2022-08-05T08:52:45;8.17;;;3.80;;
21601;SDS011;10963;50.934;4.668;2022-08-05T08:55:25;9.30;;;3.80;;
21601;SDS011;10963;50.934;4.668;2022-08-05T08:57:51;8.98;;;3.58;;
21601;SDS011;10963;50.934;4.668;2022-08-05T09:00:20;4.73;;;2.97;;
21601;SDS011;10963;50.934;4.668;2022-08-05T09:02:51;5.90;;;3.03;;
21601;SDS011;10963;50.934;4.668;2022-08-05T09:05:20;7.43;;;2.90;;
21601;SDS011;10963;50.934;4.668;2022-08-05T09:07:46;6.03;;;3.03;;
21601;SDS011;10963;50.934;4.668;2022-08-05T09:10:12;5.20;;;2.50;;
21601;SDS011;10963;50.934;4.668;2022-08-05T09:12:39;5.50;;;2.60;;
21601;SDS011;10963;50.934;4.668;2022-08-05T09:15:05;3.63;;;2.30;;
21601;SDS011;10963;50.934;4.668;2022-08-05T09:17:33;3.70;;;2.17;;
21601;SDS011;10963;50.934;4.668;2022-08-05T09:19:59;5.22;;;2.10;;
21601;SDS011;10963;50.934;4.668;2022-08-05T09:22:37;4.90;;;3.00;;
21601;SDS011;10963;50.934;4.668;2022-08-05T09:25:35;13.90;;;3.45;;
21601;SDS011;10963;50.934;4.668;2022-08-05T09:28:09;7.82;;;4.13;;
21601;SDS011;10963;50.934;4.668;2022-08-05T09:30:35;6.00;;;3.30;;
21601;SDS011;10963;50.934;4.668;2022-08-05T09:33:01;5.28;;;3.53;;
21601;SDS011;10963;50.934;4.668;2022-08-05T09:35:28;6.10;;;3.70;;
21601;SDS011;10963;50.934;4.668;2022-08-05T09:37:54;4.33;;;3.30;;
21601;SDS011;10963;50.934;4.668;2022-08-05T09:40:31;9.52;;;3.35;;
21601;SDS011;10963;50.934;4.668;2022-08-05T09:43:00;7.70;;;3.28;;
21601;SDS011;10963;50.934;4.668;2022-08-05T09:45:49;6.67;;;4.07;;
21601;SDS011;10963;50.934;4.668;2022-08-05T09:48:19;5.00;;;3.77;;
21601;SDS011;10963;50.934;4.668;2022-08-05T09:50:48;5.73;;;2.90;;
21601;SDS011;10963;50.934;4.668;2022-08-05T09:53:17;4.80;;;2.47;;
21601;SDS011;10963;50.934;4.668;2022-08-05T09:55:43;3.97;;;2.57;;
21601;SDS011;10963;50.934;4.668;2022-08-05T09:58:13;6.63;;;2.60;;
21601;SDS011;10963;50.934;4.668;2022-08-05T10:00:53;5.95;;;2.40;;
21601;SDS011;10963;50.934;4.668;2022-08-05T10:03:27;4.35;;;2.05;;
21601;SDS011;10963;50.934;4.668;2022-08-05T10:06:02;3.95;;;2.15;;
21601;SDS011;10963;50.934;4.668;2022-08-05T10:08:36;2.75;;;1.85;;
21601;SDS011;10963;50.934;4.668;2022-08-05T10:11:13;5.13;;;2.05;;
21601;SDS011;10963;50.934;4.668;2022-08-05T10:13:44;3.92;;;2.35;;
21601;SDS011;10963;50.934;4.668;2022-08-05T10:16:32;4.78;;;1.75;;
21601;SDS011;10963;50.934;4.668;2022-08-05T10:19:01;6.22;;;2.05;;
21601;SDS011;10963;50.934;4.668;2022-08-05T10:21:27;6.93;;;2.60;;
21601;SDS011;10963;50.934;4.668;2022-08-05T10:23:53;3.25;;;2.17;;
21601;SDS011;10963;50.934;4.668;2022-08-05T10:26:19;5.55;;;1.90;;
21601;SDS011;10963;50.934;4.668;2022-08-05T10:28:45;3.83;;;2.30;;
21601;SDS011;10963;50.934;4.668;2022-08-05T10:31:13;2.83;;;2.30;;
21601;SDS011;10963;50.934;4.668;2022-08-05T10:33:40;6.10;;;2.17;;
21601;SDS011;10963;50.934;4.668;2022-08-05T10:36:11;6.88;;;2.47;;
21601;SDS011;10963;50.934;4.668;2022-08-05T10:38:37;3.20;;;1.70;;
21601;SDS011;10963;50.934;4.668;2022-08-05T10:41:14;3.13;;;2.20;;
21601;SDS011;10963;50.934;4.668;2022-08-05T10:43:56;10.70;;;2.50;;
21601;SDS011;10963;50.934;4.668;2022-08-05T10:46:40;5.93;;;2.50;;
21601;SDS011;10963;50.934;4.668;2022-08-05T10:49:09;2.63;;;2.15;;
21601;SDS011;10963;50.934;4.668;2022-08-05T10:51:48;5.25;;;2.22;;
21601;SDS011;10963;50.934;4.668;2022-08-05T10:54:21;6.75;;;2.63;;
21601;SDS011;10963;50.934;4.668;2022-08-05T10:57:10;2.88;;;2.25;;
21601;SDS011;10963;50.934;4.668;2022-08-05T10:59:36;6.32;;;2.58;;
21601;SDS011;10963;50.934;4.668;2022-08-05T11:02:06;2.75;;;2.50;;
21601;SDS011;10963;50.934;4.668;2022-08-05T11:04:46;5.05;;;2.60;;
21601;SDS011;10963;50.934;4.668;2022-08-05T11:07:18;4.40;;;2.55;;
21601;SDS011;10963;50.934;4.668;2022-08-05T11:09:51;7.32;;;2.60;;
21601;SDS011;10963;50.934;4.668;2022-08-05T11:17:43;4.03;;;1.70;;
21601;SDS011;10963;50.934;4.668;2022-08-05T11:20:34;3.67;;;2.35;;
21601;SDS011;10963;50.934;4.668;2022-08-05T11:26:00;3.97;;;3.13;;
21601;SDS011;10963;50.934;4.668;2022-08-05T11:28:38;7.32;;;2.95;;
21601;SDS011;10963;50.934;4.668;2022-08-05T11:33:34;2.75;;;2.03;;
21601;SDS011;10963;50.934;4.668;2022-08-05T11:36:05;3.42;;;2.20;;
21601;SDS011;10963;50.934;4.668;2022-08-05T11:41:16;2.70;;;1.50;;
21601;SDS011;10963;50.934;4.668;2022-08-05T11:44:00;5.33;;;2.17;;
21601;SDS011;10963;50.934;4.668;2022-08-05T11:46:36;5.63;;;1.80;;
21601;SDS011;10963;50.934;4.668;2022-08-05T11:49:15;6.67;;;1.83;;
21601;SDS011;10963;50.934;4.668;2022-08-05T11:51:50;4.50;;;1.93;;
21601;SDS011;10963;50.934;4.668;2022-08-05T11:54:24;3.27;;;1.80;;
21601;SDS011;10963;50.934;4.668;2022-08-05T11:56:54;8.03;;;2.37;;
21601;SDS011;10963;50.934;4.668;2022-08-05T12:01:58;7.43;;;2.40;;
21601;SDS011;10963;50.934;4.668;2022-08-05T12:04:25;4.47;;;2.13;;
21601;SDS011;10963;50.934;4.668;2022-08-05T12:06:54;7.20;;;1.77;;
21601;SDS011;10963;50.934;4.668;2022-08-05T12:09:24;2.28;;;1.80;;
21601;SDS011;10963;50.934;4.668;2022-08-05T12:11:53;2.38;;;1.65;;
21601;SDS011;10963;50.934;4.668;2022-08-05T12:14:27;7.18;;;1.67;;
21601;SDS011;10963;50.934;4.668;2022-08-05T12:17:10;4.83;;;1.53;;
21601;SDS011;10963;50.934;4.668;2022-08-05T12:19:40;2.30;;;1.77;;
21601;SDS011;10963;50.934;4.668;2022-08-05T12:22:07;2.30;;;1.55;;
21601;SDS011;10963;50.934;4.668;2022-08-05T12:24:40;2.08;;;1.52;;
21601;SDS011;10963;50.934;4.668;2022-08-05T12:27:07;7.65;;;2.78;;
21601;SDS011;10963;50.934;4.668;2022-08-05T12:29:56;6.37;;;1.90;;
21601;SDS011;10963;50.934;4.668;2022-08-05T12:32:31;4.18;;;1.70;;
21601;SDS011;10963;50.934;4.668;2022-08-05T12:35:07;3.95;;;1.65;;
21601;SDS011;10963;50.934;4.668;2022-08-05T12:37:35;2.63;;;1.63;;
21601;SDS011;10963;50.934;4.668;2022-08-05T12:40:07;4.28;;;1.70;;
21601;SDS011;10963;50.934;4.668;2022-08-05T12:42:34;7.20;;;1.90;;
21601;SDS011;10963;50.934;4.668;2022-08-05T12:45:09;2.60;;;1.50;;
21601;SDS011;10963;50.934;4.668;2022-08-05T12:47:35;3.05;;;2.20;;
21601;SDS011;10963;50.934;4.668;2022-08-05T12:50:14;3.37;;;1.80;;
21601;SDS011;10963;50.934;4.668;2022-08-05T12:52:53;6.25;;;1.80;;
21601;SDS011;10963;50.934;4.668;2022-08-05T12:55:21;2.15;;;1.30;;
21601;SDS011;10963;50.934;4.668;2022-08-05T12:57:53;2.10;;;1.50;;
21601;SDS011;10963;50.934;4.668;2022-08-05T13:00:21;4.17;;;1.80;;
21601;SDS011;10963;50.934;4.668;2022-08-05T13:02:48;3.40;;;2.10;;
21601;SDS011;10963;50.934;4.668;2022-08-05T13:05:14;4.63;;;1.70;;
21601;SDS011;10963;50.934;4.668;2022-08-05T13:07:43;5.90;;;1.70;;
21601;SDS011;10963;50.934;4.668;2022-08-05T13:10:12;1.83;;;1.30;;
21601;SDS011;10963;50.934;4.668;2022-08-05T13:12:40;4.23;;;1.20;;
21601;SDS011;10963;50.934;4.668;2022-08-05T13:15:10;4.47;;;1.50;;
21601;SDS011;10963;50.934;4.668;2022-08-05T13:17:37;2.17;;;1.17;;
21601;SDS011;10963;50.934;4.668;2022-08-05T13:22:42;2.80;;;1.23;;
21601;SDS011;10963;50.934;4.668;2022-08-05T13:25:14;1.20;;;1.10;;
21601;SDS011;10963;50.934;4.668;2022-08-05T13:27:45;1.77;;;1.00;;
21601;SDS011;10963;50.934;4.668;2022-08-05T13:30:15;6.80;;;1.00;;
21601;SDS011;10963;50.934;4.668;2022-08-05T13:32:45;3.10;;;1.10;;
21601;SDS011;10963;50.934;4.668;2022-08-05T13:35:16;2.93;;;1.07;;
21601;SDS011;10963;50.934;4.668;2022-08-05T13:37:44;3.00;;;1.77;;
21601;SDS011;10963;50.934;4.668;2022-08-05T13:40:10;4.57;;;1.23;;
21601;SDS011;10963;50.934;4.668;2022-08-05T13:42:37;1.03;;;0.87;;
21601;SDS011;10963;50.934;4.668;2022-08-05T13:45:06;3.37;;;1.10;;
21601;SDS011;10963;50.934;4.668;2022-08-05T13:47:32;2.50;;;1.10;;
21601;SDS011;10963;50.934;4.668;2022-08-05T13:50:21;2.65;;;1.10;;
21601;SDS011;10963;50.934;4.668;2022-08-05T13:52:46;3.13;;;1.20;;
21601;SDS011;10963;50.934;4.668;2022-08-05T13:55:14;0.90;;;0.90;;
21601;SDS011;10963;50.934;4.668;2022-08-05T13:57:40;1.15;;;0.98;;
21601;SDS011;10963;50.934;4.668;2022-08-05T14:00:06;2.15;;;1.17;;
21601;SDS011;10963;50.934;4.668;2022-08-05T14:02:35;2.40;;;1.00;;
21601;SDS011;10963;50.934;4.668;2022-08-05T14:05:01;3.50;;;1.00;;
21601;SDS011;10963;50.934;4.668;2022-08-05T14:07:36;5.55;;;1.23;;
21601;SDS011;10963;50.934;4.668;2022-08-05T14:12:39;1.80;;;0.93;;
21601;SDS011;10963;50.934;4.668;2022-08-05T14:15:05;3.87;;;0.97;;
21601;SDS011;10963;50.934;4.668;2022-08-05T14:17:31;1.70;;;0.83;;
21601;SDS011;10963;50.934;4.668;2022-08-05T14:19:59;4.20;;;1.10;;
21601;SDS011;10963;50.934;4.668;2022-08-05T14:22:25;3.80;;;0.90;;
21601;SDS011;10963;50.934;4.668;2022-08-05T14:24:53;5.87;;;1.33;;
21601;SDS011;10963;50.934;4.668;2022-08-05T14:27:19;1.30;;;0.90;;
21601;SDS011;10963;50.934;4.668;2022-08-05T14:29:45;6.93;;;1.27;;
21601;SDS011;10963;50.934;4.668;2022-08-05T14:32:12;2.60;;;1.10;;
21601;SDS011;10963;50.934;4.668;2022-08-05T14:34:41;3.03;;;0.80;;
21601;SDS011;10963;50.934;4.668;2022-08-05T14:37:07;2.10;;;0.90;;
21601;SDS011;10963;50.934;4.668;2022-08-05T14:39:35;1.30;;;1.17;;
21601;SDS011;10963;50.934;4.668;2022-08-05T14:42:03;1.20;;;0.80;;
21601;SDS011;10963;50.934;4.668;2022-08-05T14:44:29;2.10;;;1.00;;
21601;SDS011;10963;50.934;4.668;2022-08-05T14:46:56;2.67;;;1.38;;
21601;SDS011;10963;50.934;4.668;2022-08-05T14:49:24;1.10;;;0.90;;
21601;SDS011;10963;50.934;4.668;2022-08-05T14:51:50;2.45;;;1.00;;
21601;SDS011;10963;50.934;4.668;2022-08-05T14:54:18;3.80;;;1.00;;
21601;SDS011;10963;50.934;4.668;2022-08-05T14:56:46;3.90;;;1.13;;
21601;SDS011;10963;50.934;4.668;2022-08-05T14:59:12;2.95;;;0.98;;
21601;SDS011;10963;50.934;4.668;2022-08-05T15:01:39;2.47;;;0.95;;
21601;SDS011;10963;50.934;4.668;2022-08-05T15:04:05;2.72;;;0.93;;
21601;SDS011;10963;50.934;4.668;2022-08-05T15:06:34;1.10;;;0.82;;
21601;SDS011;10963;50.934;4.668;2022-08-05T15:09:00;3.38;;;1.00;;
21601;SDS011;10963;50.934;4.668;2022-08-05T15:11:26;1.65;;;1.00;;
21601;SDS011;10963;50.934;4.668;2022-08-05T15:13:52;2.63;;;1.27;;
21601;SDS011;10963;50.934;4.668;2022-08-05T15:16:19;2.22;;;0.90;;
21601;SDS011;10963;50.934;4.668;2022-08-05T15:18:45;2.20;;;0.95;;
21601;SDS011;10963;50.934;4.668;2022-08-05T15:21:11;2.90;;;1.13;;
21601;SDS011;10963;50.934;4.668;2022-08-05T15:23:39;3.45;;;0.80;;
21601;SDS011;10963;50.934;4.668;2022-08-05T15:26:05;1.90;;;0.98;;
21601;SDS011;10963;50.934;4.668;2022-08-05T15:28:33;3.17;;;1.05;;
21601;SDS011;10963;50.934;4.668;2022-08-05T15:30:59;4.93;;;1.15;;